Terminal Aerodrome Forecast
Issued by NWS

Home | Current Version | Previous Version | Text Only | Print | Product List | Glossary On
Versions: 1 2 3 4 5 6 7 8 9 10 11 12 13 14 15
000
FTUS43 KOAX 310520
TAFBFF
TAF
KBFF 310520Z 3106/0106 35013G23KT P6SM BKN060
     FM310900 33008KT P6SM BKN060
     FM311500 31010G20KT P6SM SCT060
     FM010100 36008KT P6SM SKC=

USA.gov is the U.S. government's official web portal to all federal, state and local government web resources and services.